createdAt,value
2022-08-27T00:02:04.336Z,23.73
2022-08-27T00:04:39.478Z,24.70
2022-08-27T00:07:13.731Z,27.48
2022-08-27T00:09:47.766Z,31.25
2022-08-27T00:12:22.566Z,45.33
2022-08-27T00:14:56.111Z,50.17
2022-08-27T00:17:29.677Z,47.23
2022-08-27T00:20:03.118Z,42.05
2022-08-27T00:22:36.449Z,47.17
2022-08-27T00:25:11.548Z,37.30
2022-08-27T00:27:45.227Z,47.08
2022-08-27T00:30:21.706Z,40.83
2022-08-27T00:32:57.207Z,42.48
2022-08-27T00:35:30.615Z,35.70
2022-08-27T00:38:05.509Z,32.80
2022-08-27T00:40:39.604Z,37.25
2022-08-27T00:43:13.074Z,33.92
2022-08-27T00:45:48.324Z,39.85
2022-08-27T00:48:24.661Z,30.55
2022-08-27T00:50:59.108Z,33.90
2022-08-27T00:53:37.529Z,39.53
2022-08-27T00:56:15.716Z,34.05
2022-08-27T00:58:51.884Z,35.13
2022-08-27T01:01:28.355Z,39.05
2022-08-27T01:04:05.961Z,36.53
2022-08-27T01:09:15.104Z,37.15
2022-08-27T01:11:50.298Z,39.38
2022-08-27T01:14:24.177Z,35.68
2022-08-27T01:16:59.158Z,31.95
2022-08-27T01:19:35.455Z,31.00
2022-08-27T01:22:21.911Z,36.77
2022-08-27T01:24:50.779Z,33.85
2022-08-27T01:27:27.326Z,43.78
2022-08-27T01:30:01.030Z,30.37
2022-08-27T01:32:37.137Z,35.70
2022-08-27T01:35:13.995Z,38.28
2022-08-27T01:37:52.274Z,33.43
2022-08-27T01:40:25.752Z,36.83
2022-08-27T01:43:00.635Z,47.10
2022-08-27T01:45:35.905Z,43.70
2022-08-27T01:48:10.174Z,45.20
2022-08-27T01:50:44.973Z,48.23
2022-08-27T01:53:20.786Z,44.95
2022-08-27T01:55:55.502Z,47.40
2022-08-27T01:58:31.019Z,49.77
2022-08-27T02:01:08.221Z,42.88
2022-08-27T02:03:43.283Z,49.42
2022-08-27T02:06:17.177Z,58.30
2022-08-27T02:08:50.826Z,49.38
2022-08-27T02:11:24.719Z,55.75
2022-08-27T02:13:58.115Z,50.55
2022-08-27T02:16:32.583Z,47.95
2022-08-27T02:19:07.241Z,59.95
2022-08-27T02:21:42.640Z,44.85
2022-08-27T02:24:16.127Z,64.10
2022-08-27T02:26:49.617Z,51.15
2022-08-27T02:29:23.285Z,65.95
2022-08-27T02:31:57.109Z,60.03
2022-08-27T02:34:30.934Z,65.28
2022-08-27T02:37:04.869Z,56.60
2022-08-27T02:39:41.256Z,59.10
2022-08-27T02:42:14.359Z,65.75
2022-08-27T02:44:48.521Z,58.87
2022-08-27T02:47:22.422Z,67.40
2022-08-27T02:49:56.531Z,81.37
2022-08-27T02:52:31.650Z,73.50
2022-08-27T02:55:06.447Z,74.70
2022-08-27T02:57:42.414Z,76.53
2022-08-27T03:00:19.717Z,76.05
2022-08-27T03:02:53.898Z,76.30
2022-08-27T03:05:28.713Z,76.47
2022-08-27T03:08:03.729Z,61.95
2022-08-27T03:10:37.518Z,75.87
2022-08-27T03:13:11.105Z,76.15
2022-08-27T03:15:44.803Z,84.60
2022-08-27T03:18:22.030Z,89.83
2022-08-27T03:20:57.683Z,87.08
2022-08-27T03:23:34.233Z,76.05
2022-08-27T03:26:10.765Z,63.65
2022-08-27T03:28:44.443Z,87.42
2022-08-27T03:31:21.779Z,71.90
2022-08-27T03:33:56.541Z,76.47
2022-08-27T03:36:31.279Z,82.47
2022-08-27T03:39:05.254Z,94.87
2022-08-27T03:41:45.462Z,93.52
2022-08-27T03:44:21.343Z,79.62
2022-08-27T03:46:51.767Z,86.87
2022-08-27T03:49:25.618Z,81.85
2022-08-27T03:51:59.697Z,88.75
2022-08-27T03:54:49.331Z,89.42
2022-08-27T03:57:25.808Z,95.47
2022-08-27T03:59:59.882Z,99.97
2022-08-27T04:02:34.837Z,101.62
2022-08-27T04:05:10.781Z,101.78
2022-08-27T04:07:47.175Z,104.78
2022-08-27T04:10:21.909Z,101.33
2022-08-27T04:12:55.385Z,117.47
2022-08-27T04:15:30.149Z,124.38
2022-08-27T04:18:03.812Z,111.08
2022-08-27T04:20:37.937Z,119.57
2022-08-27T04:23:11.623Z,112.88
2022-08-27T04:25:46.461Z,117.85
2022-08-27T04:28:20.229Z,111.30
2022-08-27T04:30:54.014Z,114.70
2022-08-27T04:33:27.796Z,117.45
2022-08-27T04:36:02.646Z,107.95
2022-08-27T04:38:37.224Z,118.13
2022-08-27T04:41:24.793Z,111.80
2022-08-27T04:46:33.478Z,116.70
2022-08-27T04:49:10.735Z,105.70
2022-08-27T04:51:44.772Z,104.58
2022-08-27T04:54:19.367Z,106.60
2022-08-27T04:56:54.877Z,105.03
2022-08-27T04:59:28.608Z,110.72
2022-08-27T05:02:04.575Z,104.53
2022-08-27T05:04:40.552Z,105.30
2022-08-27T05:07:13.927Z,109.75
2022-08-27T05:09:47.450Z,104.95
2022-08-27T05:12:21.002Z,111.37
2022-08-27T05:14:55.653Z,105.47
2022-08-27T05:17:30.981Z,108.15
2022-08-27T05:20:05.666Z,103.22
2022-08-27T05:22:39.859Z,104.95
2022-08-27T05:25:13.933Z,112.20
2022-08-27T05:27:47.232Z,105.25
2022-08-27T05:30:21.730Z,99.30
2022-08-27T05:32:57.541Z,113.20
2022-08-27T05:35:32.926Z,106.85
2022-08-27T05:38:06.718Z,105.07
2022-08-27T05:40:42.056Z,106.95
2022-08-27T05:43:16.456Z,109.80
2022-08-27T05:45:52.870Z,103.67
2022-08-27T05:48:26.816Z,104.43
2022-08-27T05:51:02.440Z,103.72
2022-08-27T05:53:36.307Z,99.80
2022-08-27T05:56:14.580Z,103.07
2022-08-27T05:59:05.808Z,102.35
2022-08-27T06:01:43.626Z,101.18
2022-08-27T06:04:18.962Z,99.37
2022-08-27T06:06:53.452Z,103.32
2022-08-27T06:09:29.042Z,106.63
2022-08-27T06:12:04.323Z,103.32
2022-08-27T06:14:38.956Z,98.22
2022-08-27T06:17:12.464Z,89.90
2022-08-27T06:19:45.879Z,107.63
2022-08-27T06:22:19.802Z,103.80
2022-08-27T06:24:53.923Z,89.85
2022-08-27T06:27:27.509Z,99.25
2022-08-27T06:30:01.273Z,100.30
2022-08-27T06:32:34.816Z,107.70
2022-08-27T06:35:09.955Z,101.53
2022-08-27T06:37:43.176Z,104.40
2022-08-27T06:40:16.588Z,96.30
2022-08-27T06:42:49.876Z,98.52
2022-08-27T06:45:23.366Z,94.97
2022-08-27T06:47:57.699Z,94.10
2022-08-27T06:50:31.367Z,92.33
2022-08-27T06:53:04.953Z,87.50
2022-08-27T06:55:45.473Z,88.65
2022-08-27T06:58:20.667Z,87.20
2022-08-27T07:00:54.247Z,85.80
2022-08-27T07:03:27.999Z,78.90
2022-08-27T07:06:08.049Z,76.60
2022-08-27T07:08:42.255Z,76.87
2022-08-27T07:11:17.649Z,75.17
2022-08-27T07:13:52.107Z,75.50
2022-08-27T07:16:27.886Z,64.95
2022-08-27T07:19:04.280Z,63.63
2022-08-27T07:24:12.544Z,64.40
2022-08-27T07:26:47.117Z,57.62
2022-08-27T07:29:20.766Z,58.63
2022-08-27T07:31:54.354Z,56.23
2022-08-27T07:34:28.206Z,60.35
2022-08-27T07:37:01.714Z,57.10
2022-08-27T07:39:35.243Z,50.08
2022-08-27T07:42:27.000Z,65.37
2022-08-27T07:45:00.380Z,54.42
2022-08-27T07:47:35.934Z,51.70
2022-08-27T07:50:11.491Z,50.88
2022-08-27T07:52:44.989Z,49.80
2022-08-27T07:55:19.196Z,52.62
2022-08-27T07:57:52.987Z,46.50
2022-08-27T08:00:28.365Z,45.25
2022-08-27T08:03:02.538Z,51.10
2022-08-27T08:05:36.179Z,44.20
2022-08-27T08:08:09.566Z,47.73
2022-08-27T08:10:43.752Z,44.70
2022-08-27T08:13:18.075Z,43.02
2022-08-27T08:15:51.774Z,39.50
2022-08-27T08:18:27.242Z,40.28
2022-08-27T08:21:04.141Z,41.10
2022-08-27T08:23:38.671Z,43.58
2022-08-27T08:26:13.611Z,42.10
2022-08-27T08:28:47.865Z,50.45
2022-08-27T08:31:21.799Z,47.27
2022-08-27T08:33:55.582Z,45.23
2022-08-27T08:36:29.183Z,42.75
2022-08-27T08:39:03.499Z,33.73
2022-08-27T08:41:43.053Z,33.18
2022-08-27T08:44:20.500Z,31.80
2022-08-27T08:46:56.777Z,32.15
2022-08-27T08:52:12.520Z,29.35
2022-08-27T08:54:48.138Z,33.33
2022-08-27T08:57:26.823Z,30.53
2022-08-27T09:00:03.805Z,30.62
2022-08-27T09:02:37.316Z,28.00
2022-08-27T09:05:12.021Z,30.60
2022-08-27T09:07:49.042Z,35.98
2022-08-27T09:10:25.815Z,31.70
2022-08-27T09:13:02.512Z,30.95
2022-08-27T09:15:38.319Z,31.27
2022-08-27T09:18:14.320Z,27.73
2022-08-27T09:23:25.571Z,29.55
2022-08-27T09:25:59.129Z,25.35
2022-08-27T09:28:50.229Z,27.22
2022-08-27T09:31:24.303Z,25.48
2022-08-27T09:33:58.259Z,20.85
2022-08-27T09:36:31.870Z,19.25
2022-08-27T09:39:07.504Z,20.68
2022-08-27T09:41:45.405Z,21.25
2022-08-27T09:44:23.175Z,23.02
2022-08-27T09:46:59.862Z,23.02
2022-08-27T09:49:37.052Z,19.15
2022-08-27T09:52:11.982Z,17.50
2022-08-27T09:54:48.324Z,21.55
2022-08-27T09:57:28.747Z,22.75
2022-08-27T10:00:06.029Z,24.25
2022-08-27T10:02:50.911Z,16.12
2022-08-27T10:05:30.508Z,19.85
2022-08-27T10:08:07.871Z,21.68
2022-08-27T10:10:46.964Z,21.17
2022-08-27T10:13:23.674Z,16.60
2022-08-27T10:16:06.524Z,15.60
2022-08-27T10:18:45.060Z,15.23
2022-08-27T10:21:23.277Z,11.22
2022-08-27T10:24:03.956Z,12.60
2022-08-27T10:26:40.514Z,12.37
2022-08-27T10:29:16.708Z,13.43
2022-08-27T10:34:29.220Z,15.55
2022-08-27T10:37:09.457Z,12.20
2022-08-27T10:39:56.635Z,16.12
2022-08-27T10:42:32.882Z,16.25
2022-08-27T10:45:26.661Z,17.98
2022-08-27T10:47:59.966Z,15.88
2022-08-27T10:50:37.684Z,17.77
2022-08-27T10:53:14.738Z,16.60
2022-08-27T10:55:52.521Z,19.95
2022-08-27T10:58:31.473Z,19.30
2022-08-27T11:01:08.664Z,17.07
2022-08-27T11:03:44.851Z,18.50
2022-08-27T11:08:55.911Z,18.50
2022-08-27T11:14:13.868Z,21.42
2022-08-27T11:16:51.784Z,18.80
2022-08-27T11:19:29.220Z,18.80
2022-08-27T11:22:08.083Z,19.10
2022-08-27T11:24:46.085Z,17.27
2022-08-27T11:30:00.252Z,22.00
2022-08-27T11:32:34.091Z,19.37
2022-08-27T11:35:10.652Z,19.60
2022-08-27T11:37:52.324Z,18.95
2022-08-27T11:40:38.463Z,15.58
2022-08-27T11:43:16.271Z,13.58
2022-08-27T11:45:59.401Z,14.95
2022-08-27T11:48:37.803Z,14.93
2022-08-27T11:51:18.903Z,14.05
2022-08-27T11:54:01.954Z,12.20
2022-08-27T11:56:42.579Z,11.48
2022-08-27T11:59:24.955Z,14.23
2022-08-27T12:02:01.135Z,11.73
2022-08-27T12:04:40.040Z,16.48
2022-08-27T12:07:31.942Z,14.70
2022-08-27T12:13:21.731Z,14.68
2022-08-27T12:16:01.817Z,18.48
2022-08-27T12:19:01.347Z,16.48
2022-08-27T12:21:44.690Z,14.68
2022-08-27T12:24:25.701Z,14.00
2022-08-27T12:27:01.089Z,17.62
2022-08-27T12:29:44.155Z,15.35
2022-08-27T12:32:25.099Z,18.32
2022-08-27T12:35:03.516Z,15.43
2022-08-27T12:37:40.603Z,14.50
2022-08-27T12:40:22.987Z,20.82
2022-08-27T12:43:07.328Z,14.93
2022-08-27T12:45:48.876Z,16.50
2022-08-27T12:48:25.416Z,16.30
2022-08-27T12:51:02.282Z,19.90
2022-08-27T12:56:29.882Z,19.90
2022-08-27T12:59:10.964Z,18.67
2022-08-27T13:01:52.203Z,16.17
2022-08-27T13:04:28.958Z,16.80
2022-08-27T13:07:03.127Z,17.25
2022-08-27T13:09:38.996Z,18.02
2022-08-27T13:12:20.053Z,14.68
2022-08-27T13:14:54.224Z,18.02
2022-08-27T13:17:29.694Z,21.50
2022-08-27T13:20:03.615Z,15.72
2022-08-27T13:22:40.333Z,18.07
2022-08-27T13:25:25.240Z,17.02
2022-08-27T13:28:03.608Z,16.12
2022-08-27T13:30:39.390Z,16.67
2022-08-27T13:33:16.420Z,15.13
2022-08-27T13:35:51.068Z,18.73
2022-08-27T13:38:25.949Z,17.25
2022-08-27T13:41:02.656Z,19.12
2022-08-27T13:43:39.430Z,17.35
2022-08-27T13:46:15.789Z,18.92
2022-08-27T13:48:52.302Z,15.38
2022-08-27T13:51:30.435Z,28.87
2022-08-27T13:54:16.166Z,15.53
2022-08-27T13:57:07.928Z,17.05
2022-08-27T13:59:43.299Z,18.42
2022-08-27T14:02:28.404Z,16.70
2022-08-27T14:05:13.128Z,19.27
2022-08-27T14:07:48.785Z,14.13
2022-08-27T14:13:25.654Z,16.23
2022-08-27T14:16:00.831Z,16.70
2022-08-27T14:21:13.423Z,15.68
2022-08-27T14:23:47.281Z,15.72
2022-08-27T14:26:21.141Z,19.37
2022-08-27T14:28:55.617Z,16.45
2022-08-27T14:31:29.688Z,21.23
2022-08-27T14:34:03.321Z,16.23
2022-08-27T14:36:39.441Z,21.97
2022-08-27T14:39:14.417Z,18.53
2022-08-27T14:41:48.467Z,17.17
2022-08-27T14:44:23.602Z,21.20
2022-08-27T14:46:58.825Z,18.05
2022-08-27T14:49:35.810Z,19.12
2022-08-27T14:52:10.820Z,27.03
2022-08-27T14:54:45.135Z,18.87
2022-08-27T14:57:19.530Z,18.05
2022-08-27T14:59:53.240Z,15.55
2022-08-27T15:02:26.802Z,18.50
2022-08-27T15:05:00.480Z,17.15
2022-08-27T15:07:35.516Z,16.17
2022-08-27T15:10:12.135Z,19.07
2022-08-27T15:12:46.410Z,17.92
2022-08-27T15:15:19.945Z,22.35
2022-08-27T15:17:53.713Z,22.98
2022-08-27T15:20:27.414Z,21.77
2022-08-27T15:23:01.215Z,20.48
2022-08-27T15:25:35.440Z,17.90
2022-08-27T15:28:09.063Z,21.23
2022-08-27T15:30:42.588Z,18.73
2022-08-27T15:33:17.551Z,18.50
2022-08-27T15:35:51.474Z,20.00
2022-08-27T15:38:28.674Z,20.37
2022-08-27T15:41:04.877Z,21.82
2022-08-27T15:43:38.557Z,25.08
2022-08-27T15:46:12.246Z,24.43
2022-08-27T15:48:46.206Z,24.35
2022-08-27T15:51:22.224Z,27.65
2022-08-27T15:53:56.381Z,28.38
2022-08-27T15:56:34.474Z,28.60
2022-08-27T15:59:05.917Z,25.10
2022-08-27T16:01:40.707Z,26.12
2022-08-27T16:04:16.812Z,22.98
2022-08-27T16:06:50.517Z,21.65
2022-08-27T16:09:24.338Z,27.07
2022-08-27T16:11:58.563Z,22.42
2022-08-27T16:14:32.442Z,26.82
2022-08-27T16:17:06.033Z,20.43
2022-08-27T16:19:41.633Z,28.47
2022-08-27T16:22:16.327Z,23.65
2022-08-27T16:24:50.233Z,25.32
2022-08-27T16:27:23.813Z,23.77
2022-08-27T16:29:57.470Z,24.25
2022-08-27T16:32:32.938Z,28.30
2022-08-27T16:35:08.888Z,30.55
2022-08-27T16:37:42.153Z,27.27
2022-08-27T16:40:16.391Z,27.87
2022-08-27T16:42:51.470Z,25.72
2022-08-27T16:45:26.314Z,29.12
2022-08-27T16:48:16.998Z,33.02
2022-08-27T16:50:50.533Z,29.77
2022-08-27T16:53:24.591Z,30.00
2022-08-27T16:55:58.286Z,25.80
2022-08-27T16:58:32.489Z,30.32
2022-08-27T17:01:09.141Z,31.68
2022-08-27T17:04:07.352Z,29.40
2022-08-27T17:06:23.770Z,33.83
2022-08-27T17:08:59.905Z,32.03
2022-08-27T17:11:34.677Z,28.77
2022-08-27T17:14:08.736Z,37.17
2022-08-27T17:16:43.484Z,27.27
2022-08-27T17:19:18.928Z,29.07
2022-08-27T17:21:53.956Z,32.15
2022-08-27T17:24:27.842Z,26.05
2022-08-27T17:27:04.432Z,29.57
2022-08-27T17:29:38.048Z,37.93
2022-08-27T17:32:11.999Z,35.40
2022-08-27T17:34:45.644Z,30.60
2022-08-27T17:37:19.234Z,31.77
2022-08-27T17:39:53.403Z,33.65
2022-08-27T17:42:27.028Z,32.35
2022-08-27T17:45:01.160Z,37.55
2022-08-27T17:47:35.203Z,31.65
2022-08-27T17:50:11.270Z,32.60
2022-08-27T17:52:45.000Z,35.50
2022-08-27T17:55:18.909Z,34.95
2022-08-27T17:57:52.098Z,35.75
2022-08-27T18:00:26.173Z,39.35
2022-08-27T18:02:59.872Z,37.15
2022-08-27T18:05:33.102Z,44.35
2022-08-27T18:08:07.267Z,42.48
2022-08-27T18:10:41.421Z,38.15
2022-08-27T18:13:15.719Z,37.23
2022-08-27T18:15:50.385Z,41.80
2022-08-27T18:18:23.984Z,40.25
2022-08-27T18:20:59.426Z,43.48
2022-08-27T18:23:33.240Z,37.15
2022-08-27T18:26:08.164Z,41.70
2022-08-27T18:28:42.079Z,42.45
2022-08-27T18:31:17.884Z,43.52
2022-08-27T18:33:51.396Z,48.63
2022-08-27T18:36:25.518Z,47.03
2022-08-27T18:38:59.570Z,44.10
2022-08-27T18:41:34.050Z,42.83
2022-08-27T18:44:17.213Z,52.45
2022-08-27T18:46:44.195Z,50.78
2022-08-27T18:49:17.704Z,48.92
2022-08-27T18:51:52.797Z,46.50
2022-08-27T18:54:28.708Z,54.55
2022-08-27T18:57:05.424Z,49.03
2022-08-27T18:59:38.880Z,49.55
2022-08-27T19:04:44.903Z,47.98
2022-08-27T19:07:18.593Z,51.53
2022-08-27T19:09:52.187Z,63.90
2022-08-27T19:12:26.036Z,56.63
2022-08-27T19:14:59.644Z,52.60
2022-08-27T19:17:36.564Z,55.55
2022-08-27T19:20:11.737Z,62.33
2022-08-27T19:22:45.353Z,62.95
2022-08-27T19:25:20.038Z,65.15
2022-08-27T19:27:55.523Z,56.28
2022-08-27T19:30:29.208Z,61.02
2022-08-27T19:33:04.294Z,66.67
2022-08-27T19:35:39.622Z,62.65
2022-08-27T19:38:15.032Z,64.92
2022-08-27T19:40:48.629Z,64.03
2022-08-27T19:43:22.249Z,67.22
2022-08-27T19:45:56.874Z,66.15
2022-08-27T19:48:30.458Z,64.12
2022-08-27T19:51:04.159Z,68.30
2022-08-27T19:53:38.429Z,70.32
2022-08-27T19:56:13.871Z,65.92
2022-08-27T19:58:47.935Z,74.35
2022-08-27T20:01:25.896Z,73.72
2022-08-27T20:03:59.527Z,68.47
2022-08-27T20:06:34.785Z,72.30
2022-08-27T20:09:10.406Z,67.67
2022-08-27T20:11:46.016Z,76.45
2022-08-27T20:14:20.509Z,71.12
2022-08-27T20:16:54.027Z,64.95
2022-08-27T20:19:28.938Z,73.78
2022-08-27T20:22:02.853Z,73.30
2022-08-27T20:24:37.941Z,74.22
2022-08-27T20:27:11.588Z,76.62
2022-08-27T20:29:45.097Z,75.42
2022-08-27T20:32:20.644Z,70.57
2022-08-27T20:34:54.560Z,70.75
2022-08-27T20:37:28.162Z,72.45
2022-08-27T20:40:01.752Z,70.15
2022-08-27T20:42:36.009Z,71.37
2022-08-27T20:45:12.516Z,74.80
2022-08-27T20:47:48.817Z,70.25
2022-08-27T20:50:23.431Z,73.90
2022-08-27T20:52:57.116Z,71.30
2022-08-27T20:55:31.063Z,69.37
2022-08-27T20:58:22.066Z,65.90
2022-08-27T21:00:56.750Z,68.10
2022-08-27T21:03:31.924Z,68.02
2022-08-27T21:06:08.048Z,71.40
2022-08-27T21:08:46.761Z,65.50
2022-08-27T21:11:21.353Z,69.32
2022-08-27T21:13:56.703Z,72.27
2022-08-27T21:16:30.983Z,70.85
2022-08-27T21:19:04.499Z,61.18
2022-08-27T21:21:37.909Z,68.92
2022-08-27T21:24:11.650Z,69.05
2022-08-27T21:26:46.227Z,73.65
2022-08-27T21:29:21.741Z,71.30
2022-08-27T21:31:55.506Z,69.12
2022-08-27T21:34:30.666Z,72.15
2022-08-27T21:37:05.046Z,59.80
2022-08-27T21:39:39.117Z,67.00
2022-08-27T21:42:13.458Z,64.53
2022-08-27T21:44:47.948Z,60.10
2022-08-27T21:47:21.911Z,61.40
2022-08-27T21:49:56.811Z,58.08
2022-08-27T21:52:30.898Z,57.90
2022-08-27T21:55:05.112Z,56.77
2022-08-27T21:57:38.757Z,62.50
2022-08-27T22:00:19.308Z,54.30
2022-08-27T22:02:53.784Z,55.67
2022-08-27T22:05:28.937Z,55.25
2022-08-27T22:08:06.349Z,51.18
2022-08-27T22:10:40.850Z,46.58
2022-08-27T22:13:14.677Z,54.48
2022-08-27T22:15:50.933Z,52.78
2022-08-27T22:18:27.085Z,48.78
2022-08-27T22:21:06.325Z,49.73
2022-08-27T22:23:42.238Z,49.70
2022-08-27T22:26:15.495Z,51.28
2022-08-27T22:28:49.016Z,45.12
2022-08-27T22:31:23.184Z,47.98
2022-08-27T22:33:56.834Z,47.88
2022-08-27T22:36:30.727Z,45.55
2022-08-27T22:39:04.193Z,43.80
2022-08-27T22:41:37.658Z,47.00
2022-08-27T22:44:12.958Z,49.80
2022-08-27T22:46:46.659Z,47.70
2022-08-27T22:49:20.352Z,49.67
2022-08-27T22:51:56.383Z,45.00
2022-08-27T22:54:30.391Z,41.20
2022-08-27T22:57:03.850Z,46.95
2022-08-27T22:59:37.342Z,50.20
2022-08-27T23:02:13.262Z,49.30
2022-08-27T23:04:55.587Z,47.08
2022-08-27T23:07:22.126Z,47.23
2022-08-27T23:09:55.705Z,42.75
2022-08-27T23:12:29.926Z,46.37
2022-08-27T23:15:06.463Z,47.53
2022-08-27T23:17:40.464Z,45.58
2022-08-27T23:20:15.371Z,40.78
2022-08-27T23:22:49.057Z,41.25
2022-08-27T23:25:43.316Z,43.33
2022-08-27T23:28:17.800Z,45.28
2022-08-27T23:30:51.963Z,42.73
2022-08-27T23:33:25.535Z,39.27
2022-08-27T23:35:58.910Z,41.18
2022-08-27T23:38:32.823Z,38.08
2022-08-27T23:41:08.117Z,38.40
2022-08-27T23:43:41.818Z,40.38
2022-08-27T23:46:16.129Z,37.93
2022-08-27T23:48:49.616Z,37.50
2022-08-27T23:51:23.683Z,50.48
2022-08-27T23:53:57.513Z,38.60
2022-08-27T23:56:31.227Z,37.45
2022-08-27T23:59:05.327Z,44.95
